Waunakee, Wisconsin
Current Conditions -  °F | °C
As of 11:15 PM on Saturday 25 Oct 2014 (Local Time) from KC29 Reporting Station
Clear Clear  
Wind Chill: 41°   Ceiling: Unl
Heat Index: 45°   Visibility: 10mi
Dew Point: 29°   Wind: 7mph
Humidity: 54%   Direction: 280°W
Pressure: 30"   Gusts: NA
Location:  43.19°N, 89.46°W
Report Text: KC29 260415Z AUTO 28006KT 10SM CLR 07/M02 A3000 RMK AO1 T00721016
Loading
Personal Weather Stations






























Interactive Weather Map New forecast layout! Learn more

10-Day Weather Forecast

Advertisements
Track Severe Weather on mobile